Terminal Aerodrome Forecast
Issued by NWS Houston/Galveston TX

Home | Current Version | Previous Version | Text Only | Print | Product List | Glossary On
Versions: 1 2 3 4 5 6 7 8 9 10 11 12 13 14 15 16 17 18 19 20 21 22 23 24 25 26 27 28 29 30 31 32 33 34 35 36 37 38 39 40 41 42 43 44 45 46 47 48 49 50
000
FTUS44 KHGX 010919 AAA
TAFHOU
TAF AMD
KHOU 010919Z 0109/0206 10006KT 4SM -DZ BR VCSH OVC004
     FM011000 06003KT 3SM -DZ BR VCSH OVC004
      TEMPO 0112/0116 1SM SHRA BR
     FM011700 10007KT 4SM -DZ BR VCSH OVC007
     FM012100 09007KT 6SM BR SCT004 OVC009
     FM020300 06005KT 2SM BR OVC003=

USA.gov is the U.S. government's official web portal to all federal, state and local government web resources and services.